Time;durP1;ratioP1;P1;durP2;ratioP2;P2;SDS_P1;SDS_P2;PMS_P1;PMS_P2;Temp;Humidity;BMP_temperature;BMP_pressure;BME280_temperature;BME280_humidity;BME280_pressure;Samples;Min_cycle;Max_cycle;Signal;HPM_P1;HPM_P2
2022/11/28 00:02:00;;;;;;;1999.90;999.90;;;11.70;99.90;;;;;;5073246;28;20016;-76
2022/11/28 00:04:26;;;;;;;1999.90;999.90;;;11.70;99.90;;;;;;5071880;28;20078;-80
2022/11/28 00:06:53;;;;;;;1999.90;999.90;;;11.70;99.90;;;;;;5073823;28;20031;-76
2022/11/28 00:09:19;;;;;;;1999.90;999.90;;;11.60;99.90;;;;;;5072125;28;20074;-76
2022/11/28 00:11:47;;;;;;;1999.90;999.90;;;11.60;99.90;;;;;;5073097;28;20483;-76
2022/11/28 00:14:14;;;;;;;1999.90;999.90;;;11.60;99.90;;;;;;5073261;28;20095;-79
2022/11/28 00:16:40;;;;;;;1999.90;999.90;;;11.60;99.90;;;;;;5072294;28;20372;-77
2022/11/28 00:19:06;;;;;;;1999.90;999.90;;;11.60;99.90;;;;;;5058163;28;20048;-77
2022/11/28 00:21:32;;;;;;;1999.90;999.90;;;11.50;99.90;;;;;;5052803;28;20032;-77
2022/11/28 00:23:59;;;;;;;1999.90;999.90;;;11.50;99.90;;;;;;5052827;28;20119;-79
2022/11/28 00:26:32;;;;;;;1999.90;999.90;;;11.50;99.90;;;;;;5052694;28;20029;-77
2022/11/28 00:28:58;;;;;;;1999.90;999.90;;;11.50;99.90;;;;;;5052539;28;20078;-80
2022/11/28 00:31:26;;;;;;;1999.90;999.90;;;11.50;99.90;;;;;;5053331;28;20260;-77
2022/11/28 00:33:52;;;;;;;1999.90;999.90;;;11.50;99.90;;;;;;5084395;28;20056;-77
2022/11/28 00:36:19;;;;;;;1999.90;999.90;;;11.40;99.90;;;;;;5052703;28;20059;-80
2022/11/28 00:38:44;;;;;;;1999.90;999.90;;;11.40;99.90;;;;;;5052921;28;20025;-77
2022/11/28 00:41:16;;;;;;;1999.90;999.90;;;11.40;99.90;;;;;;5052959;28;20109;-77
2022/11/28 00:43:43;;;;;;;1999.90;999.90;;;11.50;99.90;;;;;;5052335;28;20017;-79
2022/11/28 00:46:10;;;;;;;1999.90;999.90;;;11.50;99.90;;;;;;5093100;28;20016;-79
2022/11/28 00:48:36;;;;;;;1999.90;999.90;;;11.50;99.90;;;;;;5079686;28;20052;-77
2022/11/28 00:51:10;;;;;;;1999.90;999.90;;;11.50;99.90;;;;;;5072693;28;20110;-76
2022/11/28 00:53:37;;;;;;;1999.90;999.90;;;11.60;99.90;;;;;;5072447;28;20024;-77
2022/11/28 00:56:06;;;;;;;1999.90;999.90;;;11.60;99.90;;;;;;5072838;28;20528;-77
2022/11/28 00:58:33;;;;;;;1999.90;999.90;;;11.50;99.90;;;;;;5071190;28;20021;-77
2022/11/28 01:01:00;;;;;;;1999.90;999.90;;;11.50;99.90;;;;;;5072390;28;20031;-77
2022/11/28 01:03:25;;;;;;;1999.90;999.90;;;11.40;99.90;;;;;;5071081;28;20044;-79
2022/11/28 01:05:51;;;;;;;1999.90;999.90;;;11.40;99.90;;;;;;5072285;28;20024;-79
2022/11/28 01:08:17;;;;;;;1999.90;999.90;;;11.40;99.90;;;;;;5071382;28;20111;-77
2022/11/28 01:10:44;;;;;;;1999.90;999.90;;;11.40;99.90;;;;;;5070889;28;20059;-75
2022/11/28 01:13:23;;;;;;;1999.90;999.90;;;11.40;99.90;;;;;;5071371;28;20074;-77
2022/11/28 01:16:19;;;;;;;1999.90;999.90;;;11.30;99.90;;;;;;5069781;28;20107;-77
2022/11/28 01:18:58;;;;;;;1999.90;999.90;;;11.30;99.90;;;;;;5058263;28;20104;-77
2022/11/28 01:21:29;;;;;;;1999.90;999.90;;;11.30;99.90;;;;;;5066554;28;20102;-77
2022/11/28 01:24:19;;;;;;;1999.90;999.90;;;11.30;99.90;;;;;;5083962;28;20190;-75
2022/11/28 01:26:51;;;;;;;1999.90;999.90;;;11.30;99.90;;;;;;5084366;28;20047;-77
2022/11/28 01:29:30;;;;;;;1999.90;999.90;;;11.30;99.90;;;;;;5049838;28;20415;-76
2022/11/28 01:32:01;;;;;;;1999.90;999.90;;;11.30;99.90;;;;;;5050892;28;20032;-76
2022/11/28 01:34:50;;;;;;;1999.90;999.90;;;11.30;99.90;;;;;;5049853;28;20106;-77
2022/11/28 01:37:31;;;;;;;1999.90;999.90;;;11.30;99.90;;;;;;5083935;28;20026;-76
2022/11/28 01:40:24;;;;;;;1999.90;999.90;;;11.30;99.90;;;;;;5086440;28;20021;-77
2022/11/28 01:43:16;;;;;;;1999.90;999.90;;;11.30;99.90;;;;;;5054356;28;20438;-76
2022/11/28 01:45:59;;;;;;;;;;;11.20;99.90;;;;;;5071472;28;20032;-76
2022/11/28 01:48:54;;;;;;;1999.90;999.90;;;11.20;99.90;;;;;;5074382;28;20378;-76
2022/11/28 01:51:51;;;;;;;1999.90;999.90;;;11.20;99.90;;;;;;5073675;28;20379;-76
2022/11/28 01:54:24;;;;;;;1999.90;999.90;;;11.10;99.90;;;;;;5073232;28;20036;-76
2022/11/28 01:57:23;;;;;;;1999.90;999.90;;;11.10;99.90;;;;;;5074270;28;20476;-77
2022/11/28 02:00:28;;;;;;;1999.90;999.90;;;11.00;99.90;;;;;;5073302;28;20757;-76
2022/11/28 02:03:27;;;;;;;1999.90;999.90;;;11.00;99.90;;;;;;5074283;28;20044;-77
2022/11/28 02:06:22;;;;;;;1999.90;999.90;;;10.90;99.90;;;;;;5054330;28;20040;-76
2022/11/28 02:09:13;;;;;;;1999.90;999.90;;;10.80;99.90;;;;;;5054153;28;20021;-76
2022/11/28 02:12:24;;;;;;;1999.90;999.90;;;10.80;99.90;;;;;;5053704;28;20407;-76
2022/11/28 02:15:34;;;;;;;1999.90;999.90;;;10.70;99.90;;;;;;5054077;28;20399;-76
2022/11/28 02:18:45;;;;;;;1999.90;999.90;;;10.60;99.90;;;;;;5057880;28;20028;-76
2022/11/28 02:21:45;;;;;;;1999.90;999.90;;;10.50;99.90;;;;;;5025014;28;20460;-76
2022/11/28 02:24:40;;;;;;;1999.90;999.90;;;10.40;99.90;;;;;;5070296;28;20125;-76
2022/11/28 02:27:34;;;;;;;1999.90;999.90;;;10.30;99.90;;;;;;5070650;28;20041;-77
2022/11/28 02:30:14;;;;;;;1999.90;999.90;;;10.20;99.90;;;;;;5070522;28;20040;-76
2022/11/28 02:33:35;;;;;;;1999.90;999.90;;;10.20;99.90;;;;;;5070491;28;20116;-76
2022/11/28 02:36:41;;;;;;;1999.90;999.90;;;10.20;99.90;;;;;;5068782;28;20033;-76
2022/11/28 02:39:34;;;;;;;1999.90;999.90;;;10.10;99.90;;;;;;5087172;28;20120;-76
2022/11/28 02:42:16;;;;;;;1999.90;999.90;;;10.20;99.90;;;;;;5055175;28;20018;-77
2022/11/28 02:44:54;;;;;;;1999.90;999.90;;;10.20;99.90;;;;;;5073799;28;20036;-76
2022/11/28 02:47:39;;;;;;;1999.90;999.90;;;10.20;99.90;;;;;;5072623;28;20075;-76
2022/11/28 02:50:49;;;;;;;1999.90;999.90;;;10.10;99.90;;;;;;5071949;28;20033;-76
2022/11/28 02:53:40;;;;;;;1999.90;999.90;;;10.20;99.90;;;;;;5103617;28;20036;-76
2022/11/28 02:56:46;;;;;;;1999.90;999.90;;;10.10;99.90;;;;;;5072117;28;20032;-77
2022/11/28 02:59:38;;;;;;;1999.90;999.90;;;10.00;99.90;;;;;;5072550;28;20510;-77
2022/11/28 03:02:36;;;;;;;1999.90;999.90;;;10.00;99.90;;;;;;5073383;28;20013;-77
2022/11/28 03:05:36;;;;;;;1999.90;999.90;;;10.00;99.90;;;;;;5072953;28;20028;-76
2022/11/28 03:08:33;;;;;;;1999.90;999.90;;;10.00;99.90;;;;;;5073192;28;20032;-77
2022/11/28 03:11:46;;;;;;;1999.90;999.90;;;10.00;99.90;;;;;;5072503;28;20036;-77
2022/11/28 03:14:33;;;;;;;1999.90;999.90;;;10.00;99.90;;;;;;5072915;28;20128;-77
2022/11/28 03:17:06;;;;;;;1999.90;999.90;;;10.00;99.90;;;;;;5072662;28;20020;-76
2022/11/28 03:19:48;;;;;;;1999.90;999.90;;;10.00;99.90;;;;;;5069698;28;20167;-77
2022/11/28 03:22:38;;;;;;;1999.90;999.90;;;10.00;99.90;;;;;;5052208;28;20111;-77
2022/11/28 03:25:46;;;;;;;1999.90;999.90;;;10.00;99.90;;;;;;5069386;28;20039;-76
2022/11/28 03:28:18;;;;;;;1999.90;999.90;;;10.10;99.90;;;;;;5048793;28;20450;-76
2022/11/28 03:31:06;;;;;;;1999.90;999.90;;;10.30;99.90;;;;;;5053045;28;20082;-75
2022/11/28 03:33:36;;;;;;;1999.90;999.90;;;10.40;99.90;;;;;;5069447;28;20438;-76
2022/11/28 03:36:18;;;;;;;1999.90;999.90;;;10.60;99.90;;;;;;5053515;28;20454;-74
2022/11/28 03:38:48;;;;;;;1999.90;999.90;;;10.60;99.90;;;;;;5053852;28;20049;-76
2022/11/28 03:41:21;;;;;;;1999.90;999.90;;;10.60;99.90;;;;;;5054018;28;20503;-76
2022/11/28 03:43:51;;;;;;;1999.90;999.90;;;10.60;99.90;;;;;;5054120;28;20071;-73
2022/11/28 03:46:21;;;;;;;1999.90;999.90;;;10.60;99.90;;;;;;5094017;28;20111;-73
2022/11/28 03:48:51;;;;;;;1999.90;999.90;;;10.60;99.90;;;;;;5093990;28;20057;-73
2022/11/28 03:51:48;;;;;;;1999.90;999.90;;;10.60;99.90;;;;;;5094150;28;20024;-73
2022/11/28 03:54:23;;;;;;;1999.90;999.90;;;10.60;99.90;;;;;;5098281;27;20040;-76
2022/11/28 03:57:09;;;;;;;1999.90;999.90;;;10.50;99.90;;;;;;5093917;28;20055;-73
2022/11/28 03:59:45;;;;;;;1999.90;999.90;;;10.50;99.90;;;;;;5082767;28;20032;-73
2022/11/28 04:02:23;;;;;;;1999.90;999.90;;;10.60;99.90;;;;;;5088184;28;20027;-74
2022/11/28 04:05:27;;;;;;;1999.90;999.90;;;10.70;99.90;;;;;;5073497;28;20044;-74
2022/11/28 04:08:01;;;;;;;1999.90;999.90;;;10.70;99.90;;;;;;5043007;28;20422;-78
2022/11/28 04:10:30;;;;;;;;;;;10.70;99.90;;;;;;5073606;28;20020;-78
2022/11/28 04:13:01;;;;;;;1999.90;999.90;;;10.70;99.90;;;;;;5071904;28;19995;-78
2022/11/28 04:15:33;;;;;;;1999.90;999.90;;;10.80;99.90;;;;;;5071738;28;20056;-78
2022/11/28 04:18:17;;;;;;;1999.90;999.90;;;10.80;99.90;;;;;;5067318;28;20021;-74
2022/11/28 04:21:05;;;;;;;1999.90;999.90;;;10.90;99.90;;;;;;5051652;28;20017;-74
2022/11/28 04:23:34;;;;;;;1999.90;999.90;;;11.10;99.90;;;;;;5053346;28;20032;-78
2022/11/28 04:26:23;;;;;;;1999.90;999.90;;;11.00;99.90;;;;;;5051389;28;20017;-73
2022/11/28 04:28:51;;;;;;;1999.90;999.90;;;10.90;99.90;;;;;;5085181;28;20021;-74
2022/11/28 04:31:18;;;;;;;1999.90;999.90;;;10.80;99.90;;;;;;5053119;28;20024;-79
2022/11/28 04:33:49;;;;;;;1999.90;999.90;;;10.70;99.90;;;;;;5052747;28;20032;-74
2022/11/28 04:36:19;;;;;;;1999.90;999.90;;;10.70;99.90;;;;;;5052056;28;20441;-79
2022/11/28 04:38:54;;;;;;;1999.90;999.90;;;10.60;99.90;;;;;;5051439;28;20051;-74
2022/11/28 04:41:33;;;;;;;1999.90;999.90;;;10.50;99.90;;;;;;5051421;28;20381;-78
2022/11/28 04:44:22;;;;;;;1999.90;999.90;;;10.50;99.90;;;;;;5072046;28;20029;-75
2022/11/28 04:46:53;;;;;;;1999.90;999.90;;;10.50;99.90;;;;;;5091938;28;20028;-74
2022/11/28 04:49:19;;;;;;;1999.90;999.90;;;10.40;99.90;;;;;;5093309;28;20085;-78
2022/11/28 04:51:59;;;;;;;1999.90;999.90;;;10.40;99.90;;;;;;5093022;28;20024;-74
2022/11/28 04:54:34;;;;;;;1999.90;999.90;;;10.30;99.90;;;;;;5091427;28;20059;-78
2022/11/28 04:57:10;;;;;;;1999.90;999.90;;;10.20;99.90;;;;;;5092942;28;20055;-75
2022/11/28 04:59:37;;;;;;;1999.90;999.90;;;10.20;99.90;;;;;;5072347;28;20020;-78
2022/11/28 05:02:04;;;;;;;1999.90;999.90;;;10.20;99.90;;;;;;5071006;28;20103;-75
2022/11/28 05:04:33;;;;;;;1999.90;999.90;;;10.20;99.90;;;;;;5072448;28;20120;-78
2022/11/28 05:07:06;;;;;;;1999.90;999.90;;;10.30;99.90;;;;;;5071677;28;20017;-75
2022/11/28 05:09:33;;;;;;;1999.90;999.90;;;10.40;99.90;;;;;;5072412;28;20024;-77
2022/11/28 05:11:58;;;;;;;1999.90;999.90;;;10.50;99.90;;;;;;5072117;28;20103;-74
2022/11/28 05:14:24;;;;;;;1999.90;999.90;;;10.50;99.90;;;;;;5072068;28;20107;-76
2022/11/28 05:16:49;;;;;;;1999.90;999.90;;;10.50;99.90;;;;;;5072548;28;20399;-76
2022/11/28 05:19:15;;;;;;;1999.90;999.90;;;10.40;99.90;;;;;;5056199;28;20094;-76
2022/11/28 05:21:41;;;;;;;1999.90;999.90;;;10.30;99.90;;;;;;5050893;28;20484;-74
2022/11/28 05:24:07;;;;;;;1999.90;999.90;;;10.30;99.90;;;;;;5050521;28;20033;-76
2022/11/28 05:26:34;;;;;;;1999.90;999.90;;;10.30;99.90;;;;;;5051868;28;20052;-76
2022/11/28 05:29:00;;;;;;;1999.90;999.90;;;10.20;99.90;;;;;;5052383;28;20036;-73
2022/11/28 05:31:27;;;;;;;1999.90;999.90;;;10.10;99.90;;;;;;5052519;28;20102;-77
2022/11/28 05:33:54;;;;;;;1999.90;999.90;;;10.10;99.90;;;;;;5050761;28;20492;-78
2022/11/28 05:36:20;;;;;;;1999.90;999.90;;;10.10;99.90;;;;;;5052085;28;20020;-78
2022/11/28 05:38:46;;;;;;;1999.90;999.90;;;10.00;99.90;;;;;;5051455;28;20083;-74
2022/11/28 05:41:26;;;;;;;1999.90;999.90;;;10.00;99.90;;;;;;5052047;28;20025;-74
2022/11/28 05:43:52;;;;;;;1999.90;999.90;;;9.90;99.90;;;;;;5053849;28;20064;-78
2022/11/28 05:46:19;;;;;;;1999.90;999.90;;;9.90;99.90;;;;;;5092364;28;20099;-78
2022/11/28 05:48:44;;;;;;;1999.90;999.90;;;9.90;99.90;;;;;;5092205;28;20394;-74
2022/11/28 05:51:10;;;;;;;1999.90;999.90;;;9.70;99.90;;;;;;5089932;28;20028;-74
2022/11/28 05:53:36;;;;;;;1999.90;999.90;;;9.60;99.90;;;;;;5071174;28;20029;-74
2022/11/28 05:56:11;;;;;;;1999.90;999.90;;;9.40;99.90;;;;;;5070341;28;20021;-79
2022/11/28 05:58:37;;;;;;;1999.90;999.90;;;9.30;99.90;;;;;;5079885;28;20077;-79
2022/11/28 06:01:18;;;;;;;1999.90;999.90;;;9.20;99.90;;;;;;5124900;28;20016;-79
2022/11/28 06:03:44;;;;;;;1999.90;999.90;;;9.20;99.90;;;;;;5073471;28;20049;-75
2022/11/28 06:06:15;;;;;;;1999.90;999.90;;;9.20;99.90;;;;;;5070879;28;20063;-79
2022/11/28 06:08:41;;;;;;;1999.90;999.90;;;9.20;99.90;;;;;;5070345;28;20028;-76
2022/11/28 06:11:07;;;;;;;1999.90;999.90;;;9.10;99.90;;;;;;5071739;28;20104;-75
2022/11/28 06:13:33;;;;;;;1999.90;999.90;;;9.10;99.90;;;;;;5071916;28;20052;-79
2022/11/28 06:15:58;;;;;;;1999.90;999.90;;;9.10;99.90;;;;;;5070705;28;20109;-75
2022/11/28 06:18:24;;;;;;;1999.90;999.90;;;9.00;99.90;;;;;;5062441;28;20036;-79
2022/11/28 06:20:49;;;;;;;1999.90;999.90;;;9.20;99.90;;;;;;5052027;28;20044;-79
2022/11/28 06:23:15;;;;;;;1999.90;999.90;;;9.10;99.90;;;;;;5051369;28;20032;-75
2022/11/28 06:25:41;;;;;;;1999.90;999.90;;;9.10;99.90;;;;;;5052310;28;20040;-75
2022/11/28 06:28:06;;;;;;;1999.90;999.90;;;9.00;99.90;;;;;;5053926;28;20027;-75
2022/11/28 06:30:32;;;;;;;1999.90;999.90;;;9.00;99.90;;;;;;5053866;28;20021;-75
2022/11/28 06:32:58;;;;;;;1999.90;999.90;;;9.10;99.90;;;;;;5054058;28;20033;-79
2022/11/28 06:35:23;;;;;;;1999.90;999.90;;;9.10;99.90;;;;;;5058189;28;20524;-79
2022/11/28 06:37:49;;;;;;;1999.90;999.90;;;9.30;99.90;;;;;;5072900;28;20028;-76
2022/11/28 06:40:15;;;;;;;1999.90;999.90;;;9.30;99.90;;;;;;5074476;28;20100;-76
2022/11/28 06:42:40;;;;;;;1999.90;999.90;;;9.40;99.90;;;;;;5073793;28;20021;-76
2022/11/28 06:45:07;;;;;;;1999.90;999.90;;;9.50;99.90;;;;;;5085305;28;20024;-79
2022/11/28 06:47:32;;;;;;;1999.90;999.90;;;9.50;99.90;;;;;;5074312;28;20040;-75
2022/11/28 06:49:58;;;;;;;1999.90;999.90;;;9.50;99.90;;;;;;5072207;28;20031;-79
2022/11/28 06:52:23;;;;;;;1999.90;999.90;;;9.60;99.90;;;;;;5073292;28;20039;-79
2022/11/28 06:54:49;;;;;;;1999.90;999.90;;;9.50;99.90;;;;;;5074538;28;20039;-79
2022/11/28 06:57:15;;;;;;;1999.90;999.90;;;9.50;99.90;;;;;;5074489;28;20036;-79
2022/11/28 06:59:40;;;;;;;1999.90;999.90;;;9.60;99.90;;;;;;5074241;28;20025;-80
2022/11/28 07:02:06;;;;;;;1999.90;999.90;;;9.70;99.90;;;;;;5079912;28;20124;-76
2022/11/28 07:04:32;;;;;;;1999.90;999.90;;;9.60;99.90;;;;;;5072342;28;20044;-75
2022/11/28 07:06:58;;;;;;;1999.90;999.90;;;9.60;99.90;;;;;;5082783;28;20028;-79
2022/11/28 07:09:23;;;;;;;1999.90;999.90;;;9.70;99.90;;;;;;5068678;28;20029;-80
2022/11/28 07:11:49;;;;;;;1999.90;999.90;;;9.70;99.90;;;;;;5065864;28;20043;-79
2022/11/28 07:14:15;;;;;;;1999.90;999.90;;;9.70;99.90;;;;;;5072072;28;20039;-76
2022/11/28 07:16:40;;;;;;;1999.90;999.90;;;9.80;99.90;;;;;;5087969;28;20062;-76
2022/11/28 07:19:06;;;;;;;1999.90;999.90;;;9.80;99.90;;;;;;5077391;28;20024;-79
2022/11/28 07:21:32;;;;;;;1999.90;999.90;;;9.80;99.90;;;;;;5080682;28;20036;-76
2022/11/28 07:23:58;;;;;;;1999.90;999.90;;;10.00;99.90;;;;;;5072763;28;20078;-78
2022/11/28 07:26:24;;;;;;;1999.90;999.90;;;10.00;99.90;;;;;;5076026;28;20028;-76
2022/11/28 07:28:50;;;;;;;1999.90;999.90;;;10.20;99.90;;;;;;5072622;28;20131;-76
2022/11/28 07:31:19;;;;;;;1999.90;999.90;;;10.40;99.90;;;;;;5070893;28;20028;-79
2022/11/28 07:33:47;;;;;;;1999.90;999.90;;;10.50;99.90;;;;;;5069802;28;20021;-76
2022/11/28 07:36:15;;;;;;;1999.90;999.90;;;10.50;99.90;;;;;;5071725;28;20028;-79
2022/11/28 07:38:41;;;;;;;1999.90;999.90;;;10.60;99.90;;;;;;5066206;28;20831;-79
2022/11/28 07:41:12;;;;;;;1999.90;999.90;;;10.60;99.90;;;;;;5060879;28;20029;-78
2022/11/28 07:43:39;;;;;;;1999.90;999.90;;;10.60;99.90;;;;;;5060392;28;20040;-77
2022/11/28 07:46:07;;;;;;;1999.90;999.90;;;10.50;99.90;;;;;;5066895;28;20032;-75
2022/11/28 07:48:33;;;;;;;1999.90;999.90;;;10.60;99.90;;;;;;5067532;28;20470;-79
2022/11/28 07:51:03;;;;;;;1999.90;999.90;;;10.70;99.90;;;;;;5068011;28;20348;-76
2022/11/28 07:53:28;;;;;;;1999.90;999.90;;;10.70;99.90;;;;;;5072296;28;20104;-76
2022/11/28 07:55:54;;;;;;;1999.90;999.90;;;10.80;99.90;;;;;;5070108;28;20115;-76
2022/11/28 07:58:21;;;;;;;1999.90;999.90;;;10.90;99.90;;;;;;5067190;28;20046;-79
2022/11/28 08:00:47;;;;;;;1999.90;999.90;;;11.10;99.90;;;;;;5066901;28;20025;-79
2022/11/28 08:03:13;;;;;;;1999.90;999.90;;;11.20;99.90;;;;;;5070725;28;20044;-79
2022/11/28 08:05:38;;;;;;;1999.90;999.90;;;11.30;99.90;;;;;;5067105;28;20035;-79
2022/11/28 08:08:04;;;;;;;1999.90;999.90;;;11.30;99.90;;;;;;5062991;28;20488;-77
2022/11/28 08:10:30;;;;;;;1999.90;999.90;;;11.20;99.90;;;;;;5057038;28;20028;-77
2022/11/28 08:12:55;;;;;;;1999.90;999.90;;;11.20;99.90;;;;;;5068402;28;20067;-77
2022/11/28 08:15:21;;;;;;;1999.90;999.90;;;11.10;99.90;;;;;;5070681;28;20063;-77
2022/11/28 08:17:47;;;;;;;1999.90;999.90;;;11.00;99.90;;;;;;5066673;28;20028;-77
2022/11/28 08:20:13;;;;;;;1999.90;999.90;;;10.90;99.90;;;;;;5063503;28;20111;-76
2022/11/28 08:22:39;;;;;;;1999.90;999.90;;;10.90;99.90;;;;;;5077276;28;20040;-77
2022/11/28 08:25:05;;;;;;;1999.90;999.90;;;11.00;99.90;;;;;;5065625;28;20377;-80
2022/11/28 08:27:31;;;;;;;1999.90;999.90;;;11.10;99.90;;;;;;5076440;28;20035;-79
2022/11/28 08:29:57;;;;;;;1999.90;999.90;;;11.10;99.90;;;;;;5068044;28;20032;-79
2022/11/28 08:32:23;;;;;;;1999.90;999.90;;;11.10;99.90;;;;;;5069027;28;20679;-76
2022/11/28 08:34:48;;;;;;;1999.90;999.90;;;11.10;99.90;;;;;;5087532;28;20544;-77
2022/11/28 08:37:14;;;;;;;1999.90;999.90;;;11.10;99.90;;;;;;5069073;28;20479;-76
2022/11/28 08:39:39;;;;;;;1999.90;999.90;;;11.10;99.90;;;;;;5066780;28;20035;-79
2022/11/28 08:42:05;;;;;;;1999.90;999.90;;;11.10;99.90;;;;;;5071074;28;20505;-80
2022/11/28 08:44:31;;;;;;;1999.90;999.90;;;11.00;99.90;;;;;;5075174;28;20119;-78
2022/11/28 08:46:56;;;;;;;1999.90;999.90;;;10.80;99.90;;;;;;5070707;28;20107;-75
2022/11/28 08:49:22;;;;;;;1999.90;999.90;;;10.50;99.90;;;;;;5068475;28;20044;-74
2022/11/28 08:51:48;;;;;;;1999.90;999.90;;;10.40;99.90;;;;;;5075940;28;20024;-81
2022/11/28 08:54:14;;;;;;;1999.90;999.90;;;10.20;99.90;;;;;;5089279;28;20040;-81
2022/11/28 08:56:39;;;;;;;1999.90;999.90;;;10.00;99.90;;;;;;5082877;28;20111;-79
2022/11/28 08:59:06;;;;;;;1999.90;999.90;;;9.90;99.90;;;;;;5065040;28;20138;-75
2022/11/28 09:01:31;;;;;;;1999.90;999.90;;;9.80;99.90;;;;;;5068073;28;20151;-74
2022/11/28 09:03:57;;;;;;;1999.90;999.90;;;9.80;99.90;;;;;;5064468;28;20132;-75
2022/11/28 09:06:23;;;;;;;1999.90;999.90;;;9.80;99.90;;;;;;5067751;28;20032;-74
2022/11/28 09:08:50;;;;;;;1999.90;999.90;;;9.90;99.90;;;;;;5064583;28;20124;-80
2022/11/28 09:11:18;;;;;;;1999.90;999.90;;;9.90;99.90;;;;;;5063797;28;20027;-74
2022/11/28 09:13:44;;;;;;;1999.90;999.90;;;9.90;99.90;;;;;;5062259;28;20063;-74
2022/11/28 09:16:10;;;;;;;1999.90;999.90;;;10.00;99.90;;;;;;5065880;28;20031;-79
2022/11/28 09:18:36;;;;;;;1999.90;999.90;;;10.00;99.90;;;;;;5067651;28;20016;-80
2022/11/28 09:21:10;;;;;;;1999.90;999.90;;;10.10;99.90;;;;;;5066158;28;20511;-75
2022/11/28 09:23:37;;;;;;;1999.90;999.90;;;9.90;99.90;;;;;;5074071;28;20024;-76
2022/11/28 09:26:15;;;;;;;1999.90;999.90;;;9.80;99.90;;;;;;5060474;28;20052;-75
2022/11/28 09:28:41;;;;;;;1999.90;999.90;;;9.70;99.90;;;;;;5067378;28;20037;-80
2022/11/28 09:31:07;;;;;;;1999.90;999.90;;;9.60;99.90;;;;;;5068356;28;20078;-80
2022/11/28 09:33:34;;;;;;;1999.90;999.90;;;9.60;99.90;;;;;;5066174;28;20028;-80
2022/11/28 09:36:08;;;;;;;1999.90;999.90;;;9.70;99.90;;;;;;5067133;28;20043;-80
2022/11/28 09:38:34;;;;;;;1999.90;999.90;;;9.80;99.90;;;;;;5066330;28;20484;-81
2022/11/28 09:41:01;;;;;;;1999.90;999.90;;;9.80;99.90;;;;;;5066533;28;20024;-74
2022/11/28 09:43:42;;;;;;;1999.90;999.90;;;10.00;99.90;;;;;;5066377;28;20029;-80
2022/11/28 09:46:19;;;;;;;1999.90;999.90;;;10.00;99.90;;;;;;5068053;28;20023;-81
2022/11/28 09:48:51;;;;;;;1999.90;999.90;;;10.20;99.90;;;;;;5068408;28;20025;-80
2022/11/28 09:51:48;;;;;;;1999.90;999.90;;;10.30;99.90;;;;;;5063206;28;20136;-74
2022/11/28 09:54:55;;;;;;;1999.90;999.90;;;10.40;99.90;;;;;;5010419;28;20048;-75
2022/11/28 09:57:55;;;;;;;1999.90;999.90;;;10.50;99.90;;;;;;5057693;28;20016;-81
2022/11/28 10:00:27;;;;;;;1999.90;999.90;;;10.50;99.90;;;;;;5077245;28;20072;-81
2022/11/28 10:03:05;;;;;;;1999.90;999.90;;;10.50;99.90;;;;;;5069766;28;20935;-76
2022/11/28 10:05:57;;;;;;;1999.90;999.90;;;10.50;99.90;;;;;;5066737;28;20104;-75
2022/11/28 10:08:50;;;;;;;1999.90;999.90;;;10.60;99.90;;;;;;5070450;28;20028;-80
2022/11/28 10:11:25;;;;;;;;;;;10.80;99.90;;;;;;5068458;28;20476;-82
2022/11/28 10:13:59;;;;;;;1999.90;999.90;;;10.90;99.90;;;;;;5070991;28;19912;-80
2022/11/28 10:16:57;;;;;;;1999.90;999.90;;;11.00;99.90;;;;;;5070413;28;20401;-75
2022/11/28 10:19:34;;;;;;;1999.90;999.90;;;11.20;99.90;;;;;;5000151;28;20067;-75
2022/11/28 10:22:03;;;;;;;1999.90;999.90;;;11.30;99.90;;;;;;5068370;28;20031;-81
2022/11/28 10:24:45;;;;;;;1999.90;999.90;;;11.40;99.90;;;;;;5069717;28;20050;-75
2022/11/28 10:27:13;;;;;;;1999.90;999.90;;;11.60;99.90;;;;;;5068775;28;20051;-81
2022/11/28 10:29:44;;;;;;;1999.90;999.90;;;11.70;99.90;;;;;;5069702;28;20074;-76
2022/11/28 10:32:15;;;;;;;1999.90;999.90;;;11.90;99.90;;;;;;5068489;28;20152;-76
2022/11/28 10:34:51;;;;;;;1999.90;999.90;;;12.20;99.90;;;;;;5068821;28;20025;-81
2022/11/28 10:37:31;;;;;;;1999.90;999.90;;;12.40;99.90;;;;;;5067951;28;20027;-81
2022/11/28 10:40:19;;;;;;;1999.90;999.90;;;12.60;99.90;;;;;;5069101;28;20490;-80
2022/11/28 10:43:00;;;;;;;1999.90;999.90;;;12.50;99.90;;;;;;5066242;28;20561;-75
2022/11/28 10:45:44;;;;;;;1999.90;999.90;;;12.30;99.90;;;;;;5067259;28;20531;-76
2022/11/28 10:48:46;;;;;;;1999.90;999.90;;;12.40;99.90;;;;;;5070971;28;20505;-81
2022/11/28 10:51:14;;;;;;;1999.90;999.90;;;12.60;99.90;;;;;;5063233;28;20025;-76
2022/11/28 10:53:50;;;;;;;1999.90;999.90;;;12.70;99.90;;;;;;5067267;28;20037;-81
2022/11/28 10:56:36;;;;;;;1999.90;999.90;;;12.90;99.90;;;;;;5061610;28;20024;-76
2022/11/28 10:59:24;;;;;;;1999.90;999.90;;;13.00;99.90;;;;;;5104904;27;20037;-76
2022/11/28 11:01:52;;;;;;;1999.90;999.90;;;13.20;99.90;;;;;;5070690;28;20075;-76
2022/11/28 11:04:21;;;;;;;1999.90;999.90;;;13.40;99.90;;;;;;5070780;28;20047;-84
2022/11/28 11:07:02;;;;;;;1999.90;999.90;;;13.60;99.90;;;;;;5073908;28;20036;-84
2022/11/28 11:09:27;;;;;;;1999.90;999.90;;;13.60;99.90;;;;;;5060739;28;20028;-77
2022/11/28 11:12:01;;;;;;;1999.90;999.90;;;13.50;99.90;;;;;;5069138;28;20036;-79
2022/11/28 11:14:40;;;;;;;1999.90;999.90;;;13.40;99.90;;;;;;5073706;28;20107;-84
2022/11/28 11:17:06;;;;;;;1999.90;999.90;;;13.20;99.90;;;;;;5071399;28;20055;-80
2022/11/28 11:19:37;;;;;;;1999.90;999.90;;;12.20;99.90;;;;;;5071061;28;20482;-82
2022/11/28 11:22:21;;;;;;;1999.90;999.90;;;11.40;99.90;;;;;;5068847;28;20499;-74
2022/11/28 11:25:05;;;;;;;1999.90;999.90;;;11.10;99.90;;;;;;5057165;28;20016;-73
2022/11/28 11:27:31;;;;;;;1999.90;999.90;;;11.00;99.90;;;;;;5063153;28;20772;-81
2022/11/28 11:29:57;;;;;;;1999.90;999.90;;;11.00;99.90;;;;;;5060712;28;20029;-81
2022/11/28 11:32:28;;;;;;;1999.90;999.90;;;11.20;99.90;;;;;;5062317;28;20113;-81
2022/11/28 11:34:55;;;;;;;1999.90;999.90;;;11.50;99.90;;;;;;5071751;28;20518;-76
2022/11/28 11:37:27;;;;;;;1999.90;999.90;;;12.20;99.90;;;;;;5070256;28;20457;-74
2022/11/28 11:39:53;;;;;;;1999.90;999.90;;;13.00;99.90;;;;;;5071467;28;20659;-80
2022/11/28 11:42:30;;;;;;;1999.90;999.90;;;13.20;99.90;;;;;;5074673;28;20095;-82
2022/11/28 11:44:56;;;;;;;1999.90;999.90;;;13.30;99.90;;;;;;5077099;28;20032;-83
2022/11/28 11:47:42;;;;;;;1999.90;999.90;;;13.50;99.90;;;;;;5073421;28;20033;-75
2022/11/28 11:50:17;;;;;;;1999.90;999.90;;;13.70;99.90;;;;;;5061846;28;20059;-75
2022/11/28 11:52:58;;;;;;;1999.90;999.90;;;13.90;99.90;;;;;;5059088;28;20519;-82
2022/11/28 11:55:24;;;;;;;1999.90;999.90;;;14.00;99.90;;;;;;5070623;28;20029;-82
2022/11/28 11:57:53;;;;;;;1999.90;999.90;;;14.00;99.90;;;;;;5067968;28;20021;-81
2022/11/28 12:00:33;;;;;;;1999.90;999.90;;;13.80;99.90;;;;;;5063857;28;20024;-76
2022/11/28 12:03:05;;;;;;;1999.90;999.90;;;13.90;99.90;;;;;;5062719;28;20127;-76
2022/11/28 12:05:49;;;;;;;1999.90;999.90;;;14.00;99.90;;;;;;5065063;28;20575;-82
2022/11/28 12:08:24;;;;;;;1999.90;999.90;;;13.40;99.90;;;;;;5063797;28;20033;-82
2022/11/28 12:11:28;;;;;;;1999.90;999.90;;;12.30;99.90;;;;;;5065927;28;20518;-81
2022/11/28 12:14:19;;;;;;;1999.90;999.90;;;11.70;99.90;;;;;;5064604;28;20032;-77
2022/11/28 12:16:56;;;;;;;1999.90;999.90;;;11.60;99.90;;;;;;5065874;28;20751;-77
2022/11/28 12:19:21;;;;;;;1999.90;999.90;;;11.70;99.90;;;;;;5068080;28;20097;-83
2022/11/28 12:22:25;;;;;;;1999.90;999.90;;;12.10;99.90;;;;;;5068709;28;20104;-82
2022/11/28 12:25:29;;;;;;;1999.90;999.90;;;12.20;99.90;;;;;;5067027;28;20139;-82
2022/11/28 12:27:54;;;;;;;1999.90;999.90;;;12.50;99.90;;;;;;5060841;28;20147;-76
2022/11/28 12:30:32;;;;;;;1999.90;999.90;;;13.00;99.90;;;;;;5069121;28;20024;-77
2022/11/28 12:33:04;;;;;;;1999.90;999.90;;;13.40;99.90;;;;;;5065895;28;20038;-77
2022/11/28 12:35:41;;;;;;;1999.90;999.90;;;13.60;99.90;;;;;;5067572;28;20115;-81
2022/11/28 12:38:22;;;;;;;1999.90;999.90;;;13.90;99.90;;;;;;5067782;28;20026;-82